Terminal Aerodrome Forecast
Issued by NWS

Home | Current Version | Previous Version | Text Only | Print | Product List | Glossary On
Versions: 1 2 3 4 5 6 7 8 9 10 11 12 13 14 15 16 17
000
FTUS46 KOTX 291139
TAFMWH
TAF
KMWH 291139Z 2912/3012 15005KT P6SM -RA SCT025 OVC035
     FM291400 16007KT P6SM OVC022
     FM291800 18010KT P6SM SCT015 OVC050
     FM292100 19011KT P6SM SCT020 BKN060 BKN150
     FM300100 21007KT P6SM SCT060 SCT150=

USA.gov is the U.S. government's official web portal to all federal, state and local government web resources and services.